sensor_id;sensor_type;location;lat;lon;timestamp;temperature;humidity
45311;SHT31;68264;51.540;5.854;2023-07-31T00:08:36;16.5;93.8
45311;SHT31;68264;51.540;5.854;2023-07-31T00:22:55;16.5;93.6
45311;SHT31;68264;51.540;5.854;2023-07-31T00:36:54;16.5;93.5
45311;SHT31;68264;51.540;5.854;2023-07-31T00:50:53;16.5;93.4
45311;SHT31;68264;51.540;5.854;2023-07-31T01:04:52;16.5;92.8
45311;SHT31;68264;51.540;5.854;2023-07-31T01:18:51;16.5;92.9
45311;SHT31;68264;51.540;5.854;2023-07-31T01:33:20;16.5;91.5
45311;SHT31;68264;51.540;5.854;2023-07-31T01:47:39;16.4;91.0
45311;SHT31;68264;51.540;5.854;2023-07-31T02:02:07;16.4;90.2
45311;SHT31;68264;51.540;5.854;2023-07-31T02:16:26;16.3;89.3
45311;SHT31;68264;51.540;5.854;2023-07-31T02:30:25;16.3;89.1
45311;SHT31;68264;51.540;5.854;2023-07-31T02:45:25;16.2;88.7
45311;SHT31;68264;51.540;5.854;2023-07-31T03:00:54;16.3;88.6
45311;SHT31;68264;51.540;5.854;2023-07-31T03:15:13;16.3;89.1
45311;SHT31;68264;51.540;5.854;2023-07-31T03:29:42;16.4;88.7
45311;SHT31;68264;51.540;5.854;2023-07-31T03:44:30;16.5;88.5
45311;SHT31;68264;51.540;5.854;2023-07-31T03:58:49;16.6;88.8
45311;SHT31;68264;51.540;5.854;2023-07-31T04:12:48;16.6;88.9
45311;SHT31;68264;51.540;5.854;2023-07-31T04:26:47;16.7;89.5
45311;SHT31;68264;51.540;5.854;2023-07-31T04:40:46;16.7;89.7
45311;SHT31;68264;51.540;5.854;2023-07-31T04:55:14;16.8;89.4
45311;SHT31;68264;51.540;5.854;2023-07-31T05:09:34;17.0;89.4
45311;SHT31;68264;51.540;5.854;2023-07-31T05:25:06;17.0;89.7
45311;SHT31;68264;51.540;5.854;2023-07-31T05:40:36;16.8;91.6
45311;SHT31;68264;51.540;5.854;2023-07-31T05:54:35;16.6;92.5
45311;SHT31;68264;51.540;5.854;2023-07-31T06:09:03;16.5;94.5
45311;SHT31;68264;51.540;5.854;2023-07-31T06:23:51;16.5;95.6
45311;SHT31;68264;51.540;5.854;2023-07-31T06:38:11;16.4;95.7
45311;SHT31;68264;51.540;5.854;2023-07-31T06:52:10;16.5;95.7
45311;SHT31;68264;51.540;5.854;2023-07-31T07:06:09;16.6;95.7
45311;SHT31;68264;51.540;5.854;2023-07-31T07:21:09;16.6;95.7
45311;SHT31;68264;51.540;5.854;2023-07-31T07:36:09;16.6;96.0
45311;SHT31;68264;51.540;5.854;2023-07-31T07:51:09;16.6;95.6
45311;SHT31;68264;51.540;5.854;2023-07-31T08:06:08;16.5;95.8
45311;SHT31;68264;51.540;5.854;2023-07-31T08:20:36;16.5;95.9
45311;SHT31;68264;51.540;5.854;2023-07-31T08:36:29;16.4;96.0
45311;SHT31;68264;51.540;5.854;2023-07-31T08:52:28;16.6;96.0
45311;SHT31;68264;51.540;5.854;2023-07-31T09:20:46;16.6;95.6
45311;SHT31;68264;51.540;5.854;2023-07-31T09:34:45;16.8;95.0
45311;SHT31;68264;51.540;5.854;2023-07-31T09:48:44;17.1;94.0
45311;SHT31;68264;51.540;5.854;2023-07-31T10:03:45;17.3;92.7
45311;SHT31;68264;51.540;5.854;2023-07-31T10:19:13;17.4;92.3
45311;SHT31;68264;51.540;5.854;2023-07-31T10:33:32;17.5;92.2
45311;SHT31;68264;51.540;5.854;2023-07-31T10:48:01;17.8;91.6
45311;SHT31;68264;51.540;5.854;2023-07-31T11:02:49;17.9;90.0
45311;SHT31;68264;51.540;5.854;2023-07-31T11:17:08;18.3;88.8
45311;SHT31;68264;51.540;5.854;2023-07-31T11:31:07;18.8;88.3
45311;SHT31;68264;51.540;5.854;2023-07-31T11:45:35;18.7;87.9
45311;SHT31;68264;51.540;5.854;2023-07-31T12:02:00;19.1;86.2
45311;SHT31;68264;51.540;5.854;2023-07-31T12:18:00;18.8;87.9
45311;SHT31;68264;51.540;5.854;2023-07-31T12:31:59;18.6;89.3
45311;SHT31;68264;51.540;5.854;2023-07-31T12:45:58;18.4;90.7
45311;SHT31;68264;51.540;5.854;2023-07-31T13:00:26;18.6;90.2
45311;SHT31;68264;51.540;5.854;2023-07-31T13:15:14;18.7;89.1
45311;SHT31;68264;51.540;5.854;2023-07-31T13:30:03;18.9;87.9
45311;SHT31;68264;51.540;5.854;2023-07-31T13:44:22;19.1;86.8
45311;SHT31;68264;51.540;5.854;2023-07-31T13:58:21;19.3;86.7
45311;SHT31;68264;51.540;5.854;2023-07-31T14:12:20;19.0;87.8
45311;SHT31;68264;51.540;5.854;2023-07-31T14:26:19;18.3;92.4
45311;SHT31;68264;51.540;5.854;2023-07-31T14:41:19;18.0;94.5
45311;SHT31;68264;51.540;5.854;2023-07-31T14:56:19;18.1;93.5
45311;SHT31;68264;51.540;5.854;2023-07-31T15:10:47;18.2;92.9
45311;SHT31;68264;51.540;5.854;2023-07-31T15:25:06;18.0;93.6
45311;SHT31;68264;51.540;5.854;2023-07-31T15:39:34;17.9;94.3
45311;SHT31;68264;51.540;5.854;2023-07-31T15:53:54;17.9;94.6
45311;SHT31;68264;51.540;5.854;2023-07-31T16:09:26;17.9;94.1
45311;SHT31;68264;51.540;5.854;2023-07-31T16:24:56;17.8;94.6
45311;SHT31;68264;51.540;5.854;2023-07-31T16:38:55;17.6;95.3
45311;SHT31;68264;51.540;5.854;2023-07-31T16:52:54;17.5;95.9
45311;SHT31;68264;51.540;5.854;2023-07-31T17:06:53;17.4;95.7
45311;SHT31;68264;51.540;5.854;2023-07-31T17:20:52;17.4;95.8
45311;SHT31;68264;51.540;5.854;2023-07-31T17:34:51;17.4;95.9
45311;SHT31;68264;51.540;5.854;2023-07-31T17:48:50;17.5;96.0
45311;SHT31;68264;51.540;5.854;2023-07-31T18:03:18;17.4;96.1
45311;SHT31;68264;51.540;5.854;2023-07-31T18:17:37;17.5;96.0
45311;SHT31;68264;51.540;5.854;2023-07-31T18:31:36;17.5;96.0
45311;SHT31;68264;51.540;5.854;2023-07-31T18:45:35;17.4;96.3
45311;SHT31;68264;51.540;5.854;2023-07-31T19:00:03;17.5;96.4
45311;SHT31;68264;51.540;5.854;2023-07-31T19:14:23;17.5;96.4
45311;SHT31;68264;51.540;5.854;2023-07-31T19:28:22;17.2;94.5
45311;SHT31;68264;51.540;5.854;2023-07-31T19:43:54;17.0;95.4
45311;SHT31;68264;51.540;5.854;2023-07-31T19:59:24;17.0;96.0
45311;SHT31;68264;51.540;5.854;2023-07-31T20:15:28;17.2;96.1
45311;SHT31;68264;51.540;5.854;2023-07-31T20:31:57;17.3;96.5
45311;SHT31;68264;51.540;5.854;2023-07-31T20:46:16;17.1;95.1
45311;SHT31;68264;51.540;5.854;2023-07-31T21:00:16;16.8;95.3
45311;SHT31;68264;51.540;5.854;2023-07-31T21:14:44;16.6;95.5
45311;SHT31;68264;51.540;5.854;2023-07-31T21:29:03;16.6;96.0
45311;SHT31;68264;51.540;5.854;2023-07-31T21:43:02;16.6;96.5
45311;SHT31;68264;51.540;5.854;2023-07-31T21:57:01;16.7;96.5
45311;SHT31;68264;51.540;5.854;2023-07-31T22:11:29;16.7;96.6
45311;SHT31;68264;51.540;5.854;2023-07-31T22:25:48;16.8;96.7
45311;SHT31;68264;51.540;5.854;2023-07-31T22:40:16;16.7;96.7
45311;SHT31;68264;51.540;5.854;2023-07-31T22:55:37;16.7;96.4
45311;SHT31;68264;51.540;5.854;2023-07-31T23:12:10;16.8;96.3
45311;SHT31;68264;51.540;5.854;2023-07-31T23:28:09;16.7;96.1
45311;SHT31;68264;51.540;5.854;2023-07-31T23:56:56;16.7;96.0
